sensor_id;sensor_type;location;lat;lon;timestamp;pressure;altitude;pressure_sealevel;temperature;humidity
68366;BME280;55283;51.466;5.478;2022-08-16T00:00:01;100425.34;;;28.71;34.88
68366;BME280;55283;51.466;5.478;2022-08-16T00:02:26;100423.28;;;28.71;34.67
68366;BME280;55283;51.466;5.478;2022-08-16T00:04:52;100408.81;;;28.58;34.62
68366;BME280;55283;51.466;5.478;2022-08-16T00:07:17;100412.16;;;28.62;34.44
68366;BME280;55283;51.466;5.478;2022-08-16T00:09:42;100427.94;;;28.69;34.82
68366;BME280;55283;51.466;5.478;2022-08-16T00:12:08;100425.09;;;28.69;34.62
68366;BME280;55283;51.466;5.478;2022-08-16T00:14:33;100430.22;;;28.64;34.97
68366;BME280;55283;51.466;5.478;2022-08-16T00:16:59;100432.03;;;28.68;34.58
68366;BME280;55283;51.466;5.478;2022-08-16T00:19:28;100425.06;;;28.63;34.73
68366;BME280;55283;51.466;5.478;2022-08-16T00:21:55;100430.75;;;28.63;34.92
68366;BME280;55283;51.466;5.478;2022-08-16T00:24:22;100411.06;;;28.48;34.65
68366;BME280;55283;51.466;5.478;2022-08-16T00:26:48;100435.91;;;28.64;34.90
68366;BME280;55283;51.466;5.478;2022-08-16T00:29:15;100438.44;;;28.62;34.98
68366;BME280;55283;51.466;5.478;2022-08-16T00:31:40;100432.00;;;28.56;34.86
68366;BME280;55283;51.466;5.478;2022-08-16T00:34:06;100445.69;;;28.63;34.90
68366;BME280;55283;51.466;5.478;2022-08-16T00:36:31;100441.03;;;28.60;34.67
68366;BME280;55283;51.466;5.478;2022-08-16T00:38:57;100446.19;;;28.62;35.14
68366;BME280;55283;51.466;5.478;2022-08-16T00:41:23;100443.34;;;28.62;34.75
68366;BME280;55283;51.466;5.478;2022-08-16T00:43:49;100441.03;;;28.60;35.23
68366;BME280;55283;51.466;5.478;2022-08-16T00:46:32;100442.31;;;28.59;35.30
68366;BME280;55283;51.466;5.478;2022-08-16T00:48:58;100447.22;;;28.59;35.02
68366;BME280;55283;51.466;5.478;2022-08-16T00:51:25;100449.56;;;28.60;34.98
68366;BME280;55283;51.466;5.478;2022-08-16T00:53:52;100445.66;;;28.58;34.96
68366;BME280;55283;51.466;5.478;2022-08-16T00:56:22;100448.50;;;28.58;34.88
68366;BME280;55283;51.466;5.478;2022-08-16T00:58:49;100442.06;;;28.57;35.34
68366;BME280;55283;51.466;5.478;2022-08-16T01:01:16;100445.63;;;28.52;35.05
68366;BME280;55283;51.466;5.478;2022-08-16T01:03:46;100448.50;;;28.58;34.89
68366;BME280;55283;51.466;5.478;2022-08-16T01:06:13;100447.22;;;28.59;35.14
68366;BME280;55283;51.466;5.478;2022-08-16T01:08:39;100457.00;;;28.58;35.32
68366;BME280;55283;51.466;5.478;2022-08-16T01:11:07;100441.50;;;28.53;35.32
68366;BME280;55283;51.466;5.478;2022-08-16T01:13:34;100445.91;;;28.54;35.13
68366;BME280;55283;51.466;5.478;2022-08-16T01:16:04;100446.94;;;28.57;34.97
68366;BME280;55283;51.466;5.478;2022-08-16T01:18:34;100448.78;;;28.60;34.75
68366;BME280;55283;51.466;5.478;2022-08-16T01:21:24;100448.75;;;28.54;35.40
68366;BME280;55283;51.466;5.478;2022-08-16T01:26:23;100432.22;;;28.47;35.29
68366;BME280;55283;51.466;5.478;2022-08-16T01:28:49;100452.34;;;28.55;35.35
68366;BME280;55283;51.466;5.478;2022-08-16T01:31:17;100434.78;;;28.45;35.15
68366;BME280;55283;51.466;5.478;2022-08-16T01:33:45;100442.81;;;28.52;35.38
68366;BME280;55283;51.466;5.478;2022-08-16T01:36:10;100446.13;;;28.51;35.21
68366;BME280;55283;51.466;5.478;2022-08-16T01:38:42;100447.19;;;28.53;35.26
68366;BME280;55283;51.466;5.478;2022-08-16T01:41:16;100447.72;;;28.52;35.33
68366;BME280;55283;51.466;5.478;2022-08-16T01:43:44;100443.56;;;28.53;35.50
68366;BME280;55283;51.466;5.478;2022-08-16T01:46:38;100444.88;;;28.52;35.17
68366;BME280;55283;51.466;5.478;2022-08-16T01:51:30;100421.28;;;28.29;35.36
68366;BME280;55283;51.466;5.478;2022-08-16T01:53:56;100450.75;;;28.48;35.18
68366;BME280;55283;51.466;5.478;2022-08-16T01:56:23;100455.44;;;28.51;35.07
68366;BME280;55283;51.466;5.478;2022-08-16T01:58:49;100440.72;;;28.47;35.50
68366;BME280;55283;51.466;5.478;2022-08-16T02:01:14;100455.16;;;28.49;35.50
68366;BME280;55283;51.466;5.478;2022-08-16T02:03:40;100447.44;;;28.50;35.09
68366;BME280;55283;51.466;5.478;2022-08-16T02:06:06;100450.53;;;28.52;35.47
68366;BME280;55283;51.466;5.478;2022-08-16T02:08:33;100456.44;;;28.48;35.51
68366;BME280;55283;51.466;5.478;2022-08-16T02:10:58;100463.41;;;28.47;35.21
68366;BME280;55283;51.466;5.478;2022-08-16T02:13:24;100457.72;;;28.47;35.51
68366;BME280;55283;51.466;5.478;2022-08-16T02:15:49;100448.41;;;28.41;35.23
68366;BME280;55283;51.466;5.478;2022-08-16T02:18:14;100453.59;;;28.48;35.24
68366;BME280;55283;51.466;5.478;2022-08-16T02:20:42;100442.44;;;28.39;35.34
68366;BME280;55283;51.466;5.478;2022-08-16T02:23:11;100445.63;;;28.47;35.20
68366;BME280;55283;51.466;5.478;2022-08-16T02:25:37;100454.13;;;28.47;35.47
68366;BME280;55283;51.466;5.478;2022-08-16T02:28:03;100456.19;;;28.46;35.28
68366;BME280;55283;51.466;5.478;2022-08-16T02:30:29;100445.59;;;28.41;35.35
68366;BME280;55283;51.466;5.478;2022-08-16T02:32:55;100407.28;;;28.14;35.40
68366;BME280;55283;51.466;5.478;2022-08-16T02:35:24;100433.94;;;28.39;35.13
68366;BME280;55283;51.466;5.478;2022-08-16T02:37:51;100447.69;;;28.46;35.35
68366;BME280;55283;51.466;5.478;2022-08-16T02:40:16;100443.28;;;28.45;35.13
68366;BME280;55283;51.466;5.478;2022-08-16T02:42:47;100452.06;;;28.47;35.28
68366;BME280;55283;51.466;5.478;2022-08-16T02:45:13;100442.00;;;28.46;35.28
68366;BME280;55283;51.466;5.478;2022-08-16T02:47:39;100420.78;;;28.36;35.51
68366;BME280;55283;51.466;5.478;2022-08-16T02:50:05;100430.38;;;28.44;35.46
68366;BME280;55283;51.466;5.478;2022-08-16T02:52:31;100421.56;;;28.36;35.29
68366;BME280;55283;51.466;5.478;2022-08-16T02:54:56;100436.34;;;28.46;35.22
68366;BME280;55283;51.466;5.478;2022-08-16T02:57:23;100433.22;;;28.44;35.52
68366;BME280;55283;51.466;5.478;2022-08-16T02:59:48;100429.56;;;28.38;35.55
68366;BME280;55283;51.466;5.478;2022-08-16T03:02:15;100417.91;;;28.30;35.31
68366;BME280;55283;51.466;5.478;2022-08-16T03:04:40;100425.97;;;28.37;35.38
68366;BME280;55283;51.466;5.478;2022-08-16T03:07:05;100430.59;;;28.40;35.11
68366;BME280;55283;51.466;5.478;2022-08-16T03:09:32;100438.91;;;28.44;35.16
68366;BME280;55283;51.466;5.478;2022-08-16T03:11:58;100434.53;;;28.43;35.16
68366;BME280;55283;51.466;5.478;2022-08-16T03:14:24;100431.69;;;28.43;35.69
68366;BME280;55283;51.466;5.478;2022-08-16T03:16:49;100392.88;;;28.17;35.45
68366;BME280;55283;51.466;5.478;2022-08-16T03:19:15;100433.44;;;28.40;35.55
68366;BME280;55283;51.466;5.478;2022-08-16T03:21:40;100440.38;;;28.39;35.49
68366;BME280;55283;51.466;5.478;2022-08-16T03:24:06;100431.09;;;28.39;35.24
68366;BME280;55283;51.466;5.478;2022-08-16T03:26:32;100429.56;;;28.38;35.36
68366;BME280;55283;51.466;5.478;2022-08-16T03:28:57;100430.06;;;28.36;35.24
68366;BME280;55283;51.466;5.478;2022-08-16T03:31:23;100426.22;;;28.39;35.37
68366;BME280;55283;51.466;5.478;2022-08-16T03:33:49;100433.94;;;28.39;35.44
68366;BME280;55283;51.466;5.478;2022-08-16T03:36:15;100431.09;;;28.39;35.30
68366;BME280;55283;51.466;5.478;2022-08-16T03:38:40;100441.19;;;28.40;35.54
68366;BME280;55283;51.466;5.478;2022-08-16T03:41:06;100442.44;;;28.39;35.40
68366;BME280;55283;51.466;5.478;2022-08-16T03:43:31;100435.19;;;28.32;35.69
68366;BME280;55283;51.466;5.478;2022-08-16T03:45:58;100447.34;;;28.38;35.65
68366;BME280;55283;51.466;5.478;2022-08-16T03:48:27;100440.13;;;28.37;35.59
68366;BME280;55283;51.466;5.478;2022-08-16T03:50:52;100449.69;;;28.40;35.36
68366;BME280;55283;51.466;5.478;2022-08-16T03:53:18;100460.22;;;28.39;35.64
68366;BME280;55283;51.466;5.478;2022-08-16T03:55:44;100458.19;;;28.40;35.25
68366;BME280;55283;51.466;5.478;2022-08-16T03:58:09;100451.94;;;28.30;35.28
68366;BME280;55283;51.466;5.478;2022-08-16T04:00:35;100456.38;;;28.37;35.33
68366;BME280;55283;51.466;5.478;2022-08-16T04:03:02;100454.28;;;28.32;35.38
68366;BME280;55283;51.466;5.478;2022-08-16T04:05:33;100474.91;;;28.38;35.30
68366;BME280;55283;51.466;5.478;2022-08-16T04:08:00;100469.25;;;28.38;35.52
68366;BME280;55283;51.466;5.478;2022-08-16T04:10:26;100479.03;;;28.37;35.61
68366;BME280;55283;51.466;5.478;2022-08-16T04:12:51;100474.91;;;28.38;35.43
68366;BME280;55283;51.466;5.478;2022-08-16T04:15:17;100477.47;;;28.36;35.45
68366;BME280;55283;51.466;5.478;2022-08-16T04:17:43;100470.50;;;28.31;35.64
68366;BME280;55283;51.466;5.478;2022-08-16T04:20:10;100482.38;;;28.35;35.36
68366;BME280;55283;51.466;5.478;2022-08-16T04:22:37;100484.44;;;28.35;35.55
68366;BME280;55283;51.466;5.478;2022-08-16T04:25:04;100483.13;;;28.36;35.51
68366;BME280;55283;51.466;5.478;2022-08-16T04:27:30;100483.91;;;28.36;35.49
68366;BME280;55283;51.466;5.478;2022-08-16T04:29:55;100477.19;;;28.28;35.28
68366;BME280;55283;51.466;5.478;2022-08-16T04:32:22;100479.25;;;28.33;35.44
68366;BME280;55283;51.466;5.478;2022-08-16T04:34:47;100483.13;;;28.36;35.31
68366;BME280;55283;51.466;5.478;2022-08-16T04:37:12;100470.75;;;28.33;35.54
68366;BME280;55283;51.466;5.478;2022-08-16T04:39:38;100472.81;;;28.33;35.42
68366;BME280;55283;51.466;5.478;2022-08-16T04:42:04;100481.59;;;28.35;35.77
68366;BME280;55283;51.466;5.478;2022-08-16T04:44:30;100481.31;;;28.33;35.54
68366;BME280;55283;51.466;5.478;2022-08-16T04:46:56;100484.94;;;28.33;35.32
68366;BME280;55283;51.466;5.478;2022-08-16T04:49:22;100468.41;;;28.26;35.16
68366;BME280;55283;51.466;5.478;2022-08-16T04:51:47;100469.41;;;28.23;35.74
68366;BME280;55283;51.466;5.478;2022-08-16T04:54:13;100483.09;;;28.30;35.56
68366;BME280;55283;51.466;5.478;2022-08-16T04:56:39;100478.25;;;28.31;35.45
68366;BME280;55283;51.466;5.478;2022-08-16T04:59:05;100484.16;;;28.33;35.46
68366;BME280;55283;51.466;5.478;2022-08-16T05:01:33;100482.84;;;28.28;35.52
68366;BME280;55283;51.466;5.478;2022-08-16T05:03:58;100488.28;;;28.32;35.32
68366;BME280;55283;51.466;5.478;2022-08-16T05:06:24;100486.22;;;28.32;35.37
68366;BME280;55283;51.466;5.478;2022-08-16T05:08:49;100483.38;;;28.32;35.19
68366;BME280;55283;51.466;5.478;2022-08-16T05:11:15;100457.25;;;28.11;35.39
68366;BME280;55283;51.466;5.478;2022-08-16T05:13:43;100486.50;;;28.34;35.21
68366;BME280;55283;51.466;5.478;2022-08-16T05:16:14;100491.41;;;28.34;35.22
68366;BME280;55283;51.466;5.478;2022-08-16T05:18:41;100495.50;;;28.33;35.34
68366;BME280;55283;51.466;5.478;2022-08-16T05:21:07;100489.34;;;28.34;35.46
68366;BME280;55283;51.466;5.478;2022-08-16T05:23:32;100498.84;;;28.31;35.16
68366;BME280;55283;51.466;5.478;2022-08-16T05:25:57;100498.06;;;28.31;35.43
68366;BME280;55283;51.466;5.478;2022-08-16T05:28:26;100500.91;;;28.31;35.45
68366;BME280;55283;51.466;5.478;2022-08-16T05:30:52;100504.28;;;28.35;35.27
68366;BME280;55283;51.466;5.478;2022-08-16T05:33:18;100488.53;;;28.28;35.29
68366;BME280;55283;51.466;5.478;2022-08-16T05:35:46;100496.00;;;28.31;35.75
68366;BME280;55283;51.466;5.478;2022-08-16T05:38:11;100503.75;;;28.36;35.39
68366;BME280;55283;51.466;5.478;2022-08-16T05:40:37;100485.09;;;28.18;36.39
68366;BME280;55283;51.466;5.478;2022-08-16T05:43:03;100510.34;;;28.16;36.30
68366;BME280;55283;51.466;5.478;2022-08-16T05:45:28;100518.47;;;28.03;36.65
68366;BME280;55283;51.466;5.478;2022-08-16T05:47:54;100509.41;;;27.93;36.85
68366;BME280;55283;51.466;5.478;2022-08-16T05:50:19;100514.81;;;27.97;36.47
68366;BME280;55283;51.466;5.478;2022-08-16T05:52:44;100520.53;;;28.03;36.20
68366;BME280;55283;51.466;5.478;2022-08-16T05:55:10;100515.94;;;28.05;35.79
68366;BME280;55283;51.466;5.478;2022-08-16T05:57:35;100522.59;;;28.02;35.82
68366;BME280;55283;51.466;5.478;2022-08-16T06:00:03;100510.69;;;27.98;35.51
68366;BME280;55283;51.466;5.478;2022-08-16T06:02:29;100522.03;;;27.98;35.39
68366;BME280;55283;51.466;5.478;2022-08-16T06:04:57;100540.50;;;27.88;35.69
68366;BME280;55283;51.466;5.478;2022-08-16T06:07:22;100510.53;;;27.55;35.65
68366;BME280;55283;51.466;5.478;2022-08-16T06:09:47;100531.94;;;27.56;35.92
68366;BME280;55283;51.466;5.478;2022-08-16T06:12:14;100527.22;;;27.47;36.06
68366;BME280;55283;51.466;5.478;2022-08-16T06:14:40;100539.91;;;27.58;35.84
68366;BME280;55283;51.466;5.478;2022-08-16T06:17:06;100548.91;;;27.56;35.96
68366;BME280;55283;51.466;5.478;2022-08-16T06:19:31;100535.94;;;27.44;35.83
68366;BME280;55283;51.466;5.478;2022-08-16T06:21:57;100553.53;;;27.53;36.11
68366;BME280;55283;51.466;5.478;2022-08-16T06:24:23;100549.63;;;27.51;36.08
68366;BME280;55283;51.466;5.478;2022-08-16T06:26:48;100559.94;;;27.54;35.89
68366;BME280;55283;51.466;5.478;2022-08-16T06:29:14;100543.13;;;27.45;35.85
68366;BME280;55283;51.466;5.478;2022-08-16T06:31:39;100562.94;;;27.45;36.01
68366;BME280;55283;51.466;5.478;2022-08-16T06:34:05;100553.25;;;27.31;36.49
68366;BME280;55283;51.466;5.478;2022-08-16T06:36:30;100546.13;;;27.36;35.95
68366;BME280;55283;51.466;5.478;2022-08-16T06:38:57;100560.81;;;27.40;36.03
68366;BME280;55283;51.466;5.478;2022-08-16T06:41:23;100558.34;;;27.47;35.76
68366;BME280;55283;51.466;5.478;2022-08-16T06:43:49;100564.56;;;27.51;36.00
68366;BME280;55283;51.466;5.478;2022-08-16T06:46:30;100562.44;;;27.46;36.07
68366;BME280;55283;51.466;5.478;2022-08-16T06:49:00;100554.16;;;27.43;35.92
68366;BME280;55283;51.466;5.478;2022-08-16T06:51:26;100556.22;;;27.42;36.29
68366;BME280;55283;51.466;5.478;2022-08-16T06:53:51;100552.84;;;27.38;36.38
68366;BME280;55283;51.466;5.478;2022-08-16T06:56:17;100557.56;;;27.47;36.35
68366;BME280;55283;51.466;5.478;2022-08-16T06:58:42;100563.00;;;27.50;36.29
68366;BME280;55283;51.466;5.478;2022-08-16T07:01:08;100559.91;;;27.28;36.47
68366;BME280;55283;51.466;5.478;2022-08-16T07:03:33;100560.81;;;27.40;36.68
68366;BME280;55283;51.466;5.478;2022-08-16T07:05:59;100558.56;;;27.44;37.05
68366;BME280;55283;51.466;5.478;2022-08-16T07:08:25;100548.72;;;27.39;36.53
68366;BME280;55283;51.466;5.478;2022-08-16T07:10:51;100552.47;;;27.51;36.04
68366;BME280;55283;51.466;5.478;2022-08-16T07:13:17;100544.13;;;27.21;36.09
68366;BME280;55283;51.466;5.478;2022-08-16T07:15:44;100568.25;;;27.37;36.36
68366;BME280;55283;51.466;5.478;2022-08-16T07:18:09;100576.31;;;27.44;36.14
68366;BME280;55283;51.466;5.478;2022-08-16T07:20:37;100577.09;;;27.45;35.98
68366;BME280;55283;51.466;5.478;2022-08-16T07:23:03;100574.09;;;27.54;36.42
68366;BME280;55283;51.466;5.478;2022-08-16T07:25:31;100564.13;;;27.59;35.88
68366;BME280;55283;51.466;5.478;2022-08-16T07:27:57;100570.13;;;27.66;35.90
68366;BME280;55283;51.466;5.478;2022-08-16T07:30:23;100567.44;;;27.57;35.67
68366;BME280;55283;51.466;5.478;2022-08-16T07:32:48;100573.53;;;27.70;35.74
68366;BME280;55283;51.466;5.478;2022-08-16T07:35:15;100583.22;;;27.84;35.56
68366;BME280;55283;51.466;5.478;2022-08-16T07:37:41;100590.91;;;27.84;36.05
68366;BME280;55283;51.466;5.478;2022-08-16T07:40:07;100567.34;;;27.72;35.79
68366;BME280;55283;51.466;5.478;2022-08-16T07:42:33;100582.94;;;27.82;35.83
68366;BME280;55283;51.466;5.478;2022-08-16T07:44:58;100578.38;;;27.90;35.31
68366;BME280;55283;51.466;5.478;2022-08-16T07:47:23;100599.75;;;27.91;35.80
68366;BME280;55283;51.466;5.478;2022-08-16T07:49:49;100600.56;;;27.71;36.20
68366;BME280;55283;51.466;5.478;2022-08-16T07:52:14;100598.56;;;27.78;36.22
68366;BME280;55283;51.466;5.478;2022-08-16T07:54:39;100597.91;;;27.88;36.29
68366;BME280;55283;51.466;5.478;2022-08-16T07:57:05;100608.03;;;27.95;35.73
68366;BME280;55283;51.466;5.478;2022-08-16T07:59:30;100595.72;;;27.78;35.71
68366;BME280;55283;51.466;5.478;2022-08-16T08:01:56;100606.41;;;27.88;36.50
68366;BME280;55283;51.466;5.478;2022-08-16T08:04:21;100605.88;;;27.84;36.11
68366;BME280;55283;51.466;5.478;2022-08-16T08:06:47;100617.06;;;27.73;36.16
68366;BME280;55283;51.466;5.478;2022-08-16T08:09:12;100616.22;;;27.67;36.24
68366;BME280;55283;51.466;5.478;2022-08-16T08:11:38;100610.03;;;27.89;36.20
68366;BME280;55283;51.466;5.478;2022-08-16T08:14:04;100586.13;;;27.95;35.75
68366;BME280;55283;51.466;5.478;2022-08-16T08:16:30;100608.66;;;28.10;35.81
68366;BME280;55283;51.466;5.478;2022-08-16T08:18:57;100614.19;;;28.19;35.74
68366;BME280;55283;51.466;5.478;2022-08-16T08:21:24;100610.25;;;28.11;36.17
68366;BME280;55283;51.466;5.478;2022-08-16T08:23:50;100615.91;;;28.11;35.75
68366;BME280;55283;51.466;5.478;2022-08-16T08:26:17;100608.88;;;28.33;35.97
68366;BME280;55283;51.466;5.478;2022-08-16T08:28:43;100604.88;;;28.19;35.91
68366;BME280;55283;51.466;5.478;2022-08-16T08:31:09;100625.34;;;28.29;35.99
68366;BME280;55283;51.466;5.478;2022-08-16T08:33:35;100617.31;;;28.27;35.67
68366;BME280;55283;51.466;5.478;2022-08-16T08:36:04;100616.13;;;28.34;35.84
68366;BME280;55283;51.466;5.478;2022-08-16T08:38:32;100618.19;;;28.39;35.58
68366;BME280;55283;51.466;5.478;2022-08-16T08:40:57;100618.06;;;28.54;35.56
68366;BME280;55283;51.466;5.478;2022-08-16T08:43:23;100619.69;;;28.60;34.39
68366;BME280;55283;51.466;5.478;2022-08-16T08:45:50;100620.91;;;28.54;34.96
68366;BME280;55283;51.466;5.478;2022-08-16T08:48:17;100621.16;;;28.50;34.60
68366;BME280;55283;51.466;5.478;2022-08-16T08:50:42;100632.72;;;28.47;34.32
68366;BME280;55283;51.466;5.478;2022-08-16T08:53:08;100619.03;;;28.45;33.64
68366;BME280;55283;51.466;5.478;2022-08-16T08:55:33;100628.41;;;28.57;33.79
68366;BME280;55283;51.466;5.478;2022-08-16T08:57:59;100626.13;;;28.61;33.47
68366;BME280;55283;51.466;5.478;2022-08-16T09:00:25;100630.75;;;28.58;33.63
68366;BME280;55283;51.466;5.478;2022-08-16T09:02:52;100627.00;;;28.41;33.42
68366;BME280;55283;51.466;5.478;2022-08-16T09:05:19;100626.59;;;28.28;33.52
68366;BME280;55283;51.466;5.478;2022-08-16T09:07:46;100645.13;;;28.23;33.24
68366;BME280;55283;51.466;5.478;2022-08-16T09:10:11;100632.84;;;28.32;33.01
68366;BME280;55283;51.466;5.478;2022-08-16T09:12:38;100636.97;;;28.31;33.46
68366;BME280;55283;51.466;5.478;2022-08-16T09:15:06;100647.31;;;28.39;32.74
68366;BME280;55283;51.466;5.478;2022-08-16T09:17:32;100645.28;;;28.40;32.85
68366;BME280;55283;51.466;5.478;2022-08-16T09:19:58;100644.41;;;28.28;31.98
68366;BME280;55283;51.466;5.478;2022-08-16T09:22:25;100649.59;;;28.35;32.48
68366;BME280;55283;51.466;5.478;2022-08-16T09:24:50;100653.69;;;28.29;32.65
68366;BME280;55283;51.466;5.478;2022-08-16T09:27:16;100637.50;;;28.35;32.12
68366;BME280;55283;51.466;5.478;2022-08-16T09:29:42;100635.19;;;28.39;32.11
68366;BME280;55283;51.466;5.478;2022-08-16T09:32:07;100636.28;;;28.41;32.14
68366;BME280;55283;51.466;5.478;2022-08-16T09:34:33;100639.50;;;28.55;32.36
68366;BME280;55283;51.466;5.478;2022-08-16T09:36:58;100624.47;;;28.43;31.81
68366;BME280;55283;51.466;5.478;2022-08-16T09:39:24;100636.78;;;28.40;31.05
68366;BME280;55283;51.466;5.478;2022-08-16T09:41:52;100639.41;;;28.43;31.20
68366;BME280;55283;51.466;5.478;2022-08-16T09:44:21;100596.28;;;28.34;31.19
68366;BME280;55283;51.466;5.478;2022-08-16T09:46:48;100627.19;;;28.63;31.51
68366;BME280;55283;51.466;5.478;2022-08-16T09:49:14;100634.91;;;28.63;30.57
68366;BME280;55283;51.466;5.478;2022-08-16T09:51:40;100635.53;;;28.78;30.90
68366;BME280;55283;51.466;5.478;2022-08-16T09:54:06;100654.41;;;28.87;30.78
68366;BME280;55283;51.466;5.478;2022-08-16T09:56:36;100648.22;;;28.88;30.49
68366;BME280;55283;51.466;5.478;2022-08-16T09:59:03;100644.53;;;28.77;30.42
68366;BME280;55283;51.466;5.478;2022-08-16T10:01:31;100639.94;;;28.85;30.63
68366;BME280;55283;51.466;5.478;2022-08-16T10:03:56;100625.06;;;28.96;30.55
68366;BME280;55283;51.466;5.478;2022-08-16T10:06:25;100626.41;;;29.00;30.20
68366;BME280;55283;51.466;5.478;2022-08-16T10:08:52;100638.81;;;29.08;29.94
68366;BME280;55283;51.466;5.478;2022-08-16T10:11:17;100656.13;;;29.10;29.67
68366;BME280;55283;51.466;5.478;2022-08-16T10:14:02;100636.50;;;29.07;30.17
68366;BME280;55283;51.466;5.478;2022-08-16T10:16:27;100633.16;;;29.08;30.36
68366;BME280;55283;51.466;5.478;2022-08-16T10:18:53;100640.66;;;29.12;30.65
68366;BME280;55283;51.466;5.478;2022-08-16T10:21:19;100642.19;;;29.07;30.16
68366;BME280;55283;51.466;5.478;2022-08-16T10:23:45;100641.19;;;29.16;30.31
68366;BME280;55283;51.466;5.478;2022-08-16T10:26:12;100652.53;;;29.10;30.46
68366;BME280;55283;51.466;5.478;2022-08-16T10:28:38;100647.09;;;29.12;29.87
68366;BME280;55283;51.466;5.478;2022-08-16T10:31:05;100637.00;;;29.05;30.26
68366;BME280;55283;51.466;5.478;2022-08-16T10:33:32;100647.91;;;29.13;29.50
68366;BME280;55283;51.466;5.478;2022-08-16T10:35:58;100652.78;;;29.06;29.04
68366;BME280;55283;51.466;5.478;2022-08-16T10:38:25;100649.19;;;29.17;28.89
68366;BME280;55283;51.466;5.478;2022-08-16T10:40:51;100647.41;;;29.20;28.98
68366;BME280;55283;51.466;5.478;2022-08-16T10:43:16;100641.91;;;29.05;29.04
68366;BME280;55283;51.466;5.478;2022-08-16T10:45:42;100632.38;;;29.08;28.98
68366;BME280;55283;51.466;5.478;2022-08-16T10:48:09;100655.41;;;29.16;29.16
68366;BME280;55283;51.466;5.478;2022-08-16T10:50:35;100634.19;;;29.11;30.13
68366;BME280;55283;51.466;5.478;2022-08-16T10:53:01;100651.28;;;29.22;29.48
68366;BME280;55283;51.466;5.478;2022-08-16T10:55:35;100641.22;;;29.21;28.91
68366;BME280;55283;51.466;5.478;2022-08-16T10:58:05;100644.91;;;29.33;28.98
68366;BME280;55283;51.466;5.478;2022-08-16T11:00:32;100651.06;;;29.31;28.76
68366;BME280;55283;51.466;5.478;2022-08-16T11:03:01;100665.53;;;29.33;28.02
68366;BME280;55283;51.466;5.478;2022-08-16T11:05:29;100663.97;;;29.27;27.98
68366;BME280;55283;51.466;5.478;2022-08-16T11:07:56;100658.59;;;29.40;28.19
68366;BME280;55283;51.466;5.478;2022-08-16T11:10:30;100664.81;;;29.50;27.65
68366;BME280;55283;51.466;5.478;2022-08-16T11:12:57;100665.16;;;29.58;28.07
68366;BME280;55283;51.466;5.478;2022-08-16T11:15:23;100657.41;;;29.58;27.57
68366;BME280;55283;51.466;5.478;2022-08-16T11:17:50;100656.31;;;29.50;28.18
68366;BME280;55283;51.466;5.478;2022-08-16T11:20:16;100683.94;;;29.49;27.76
68366;BME280;55283;51.466;5.478;2022-08-16T11:22:43;100667.66;;;29.50;27.77
68366;BME280;55283;51.466;5.478;2022-08-16T11:25:10;100657.06;;;29.39;27.41
68366;BME280;55283;51.466;5.478;2022-08-16T11:27:36;100673.88;;;29.48;27.31
68366;BME280;55283;51.466;5.478;2022-08-16T11:30:03;100675.09;;;29.36;27.57
68366;BME280;55283;51.466;5.478;2022-08-16T11:32:29;100672.00;;;29.34;27.23
68366;BME280;55283;51.466;5.478;2022-08-16T11:34:54;100681.22;;;29.23;27.55
68366;BME280;55283;51.466;5.478;2022-08-16T11:37:21;100677.19;;;29.36;27.40
68366;BME280;55283;51.466;5.478;2022-08-16T11:39:46;100682.38;;;29.48;27.68
68366;BME280;55283;51.466;5.478;2022-08-16T11:42:11;100683.72;;;29.53;27.17
68366;BME280;55283;51.466;5.478;2022-08-16T11:44:37;100671.50;;;29.41;27.80
68366;BME280;55283;51.466;5.478;2022-08-16T11:47:02;100673.81;;;29.37;27.79
68366;BME280;55283;51.466;5.478;2022-08-16T11:49:28;100699.91;;;29.47;28.40
68366;BME280;55283;51.466;5.478;2022-08-16T11:51:53;100682.84;;;29.36;27.79
68366;BME280;55283;51.466;5.478;2022-08-16T11:54:19;100691.13;;;29.39;28.31
68366;BME280;55283;51.466;5.478;2022-08-16T11:56:45;100690.56;;;29.35;28.24
68366;BME280;55283;51.466;5.478;2022-08-16T11:59:10;100674.00;;;29.22;27.84
68366;BME280;55283;51.466;5.478;2022-08-16T12:01:36;100677.38;;;29.26;27.77
68366;BME280;55283;51.466;5.478;2022-08-16T12:04:02;100689.78;;;29.35;27.68
68366;BME280;55283;51.466;5.478;2022-08-16T12:06:28;100687.22;;;29.31;28.09
68366;BME280;55283;51.466;5.478;2022-08-16T12:08:54;100680.78;;;29.36;27.80
68366;BME280;55283;51.466;5.478;2022-08-16T12:11:22;100659.09;;;29.33;27.69
68366;BME280;55283;51.466;5.478;2022-08-16T12:13:50;100685.44;;;29.39;27.63
68366;BME280;55283;51.466;5.478;2022-08-16T12:16:18;100682.84;;;29.36;27.89
68366;BME280;55283;51.466;5.478;2022-08-16T12:18:44;100679.28;;;29.46;27.57
68366;BME280;55283;51.466;5.478;2022-08-16T12:21:09;100687.78;;;29.46;27.39
68366;BME280;55283;51.466;5.478;2022-08-16T12:23:35;100701.44;;;29.37;27.45
68366;BME280;55283;51.466;5.478;2022-08-16T12:26:00;100693.22;;;29.44;27.35
68366;BME280;55283;51.466;5.478;2022-08-16T12:28:26;100694.47;;;29.43;26.61
68366;BME280;55283;51.466;5.478;2022-08-16T12:30:51;100694.47;;;29.38;26.43
68366;BME280;55283;51.466;5.478;2022-08-16T12:33:17;100691.09;;;29.33;26.67
68366;BME280;55283;51.466;5.478;2022-08-16T12:35:45;100695.22;;;29.38;26.34
68366;BME280;55283;51.466;5.478;2022-08-16T12:38:11;100700.91;;;29.38;26.89
68366;BME280;55283;51.466;5.478;2022-08-16T12:40:39;100686.97;;;29.35;26.49
68366;BME280;55283;51.466;5.478;2022-08-16T12:43:08;100693.69;;;29.37;27.14
68366;BME280;55283;51.466;5.478;2022-08-16T12:45:37;100682.84;;;29.41;27.04
68366;BME280;55283;51.466;5.478;2022-08-16T12:48:06;100697.59;;;29.45;26.81
68366;BME280;55283;51.466;5.478;2022-08-16T12:50:51;100682.03;;;29.29;26.56